HELX 020500Z 00000KT CAVOK 28/10 Q1010 NOSIG
From batch tds/metars/production/2022/10/2/h05_m24_metars.cache.csv.gz
Observed at (about 1 hour ago)
Identifier HELX
HELX 020400Z 18002KT CAVOK 26/10 Q1009 NOSIG
From batch tds/metars/production/2022/10/2/h04_m25_metars.cache.csv.gz
Observed at (about 2 hours ago)
Identifier HELX
HELX 020300Z 00000KT CAVOK 27/10 Q1009 NOSIG
From batch tds/metars/production/2022/10/2/h03_m55_metars.cache.csv.gz
Observed at (about 3 hours ago)
Identifier HELX
HELX 020200Z 09005KT CAVOK 27/09 Q1009 NOSIG
From batch tds/metars/production/2022/10/2/h02_m59_metars.cache.csv.gz
Observed at (about 4 hours ago)
Identifier HELX
HELX 020100Z 17003KT CAVOK 28/10 Q1009 NOSIG
From batch tds/metars/production/2022/10/2/h01_m29_metars.cache.csv.gz
Observed at (about 5 hours ago)
Identifier HELX
HELX 020000Z 14003KT CAVOK 29/08 Q1009 NOSIG
From batch tds/metars/production/2022/10/2/h00_m21_metars.cache.csv.gz
Observed at (about 6 hours ago)
Identifier HELX
HELX 012300Z 26003KT CAVOK 29/09 Q1010 NOSIG
From batch tds/metars/production/2022/10/1/h23_m23_metars.cache.csv.gz
Observed at (about 7 hours ago)
Identifier HELX
HELX 012200Z 07004KT CAVOK 30/09 Q1010 NOSIG
From batch tds/metars/production/2022/10/1/h22_m22_metars.cache.csv.gz
Observed at (about 8 hours ago)
Identifier HELX
HELX 012100Z 01012KT CAVOK 31/09 Q1010 NOSIG
From batch tds/metars/production/2022/10/1/h21_m29_metars.cache.csv.gz
Observed at (about 9 hours ago)
Identifier HELX
HELX 012000Z 03003KT CAVOK 32/09 Q1010 NOSIG
From batch tds/metars/production/2022/10/1/h20_m27_metars.cache.csv.gz
Observed at (about 10 hours ago)
Identifier HELX
HELX 011900Z 33003KT CAVOK 32/13 Q1010 NOSIG
From batch tds/metars/production/2022/10/1/h19_m51_metars.cache.csv.gz
Observed at (about 11 hours ago)
Identifier HELX
HELX 011800Z 07002KT CAVOK 35/10 Q1009 NOSIG
From batch tds/metars/production/2022/10/1/h18_m51_metars.cache.csv.gz
Observed at (about 12 hours ago)
Identifier HELX
HELX 011700Z 05004KT CAVOK 37/08 Q1009 NOSIG
From batch tds/metars/production/2022/10/1/h17_m24_metars.cache.csv.gz
Observed at (about 13 hours ago)
Identifier HELX
HELX 011600Z 05004KT CAVOK 38/09 Q1008 NOSIG
From batch tds/metars/production/2022/10/1/h16_m29_metars.cache.csv.gz
Observed at (about 14 hours ago)
Identifier HELX
HELX 011500Z 03004KT CAVOK 40/09 Q1008 NOSIG
From batch tds/metars/production/2022/10/1/h15_m59_metars.cache.csv.gz
Observed at (about 15 hours ago)
Identifier HELX
HELX 011400Z 02007KT CAVOK 41/08 Q1009 NOSIG
From batch tds/metars/production/2022/10/1/h14_m22_metars.cache.csv.gz
Observed at (about 16 hours ago)
Identifier HELX
HELX 011300Z 36008KT CAVOK 42/09 Q1009 NOSIG
From batch tds/metars/production/2022/10/1/h13_m52_metars.cache.csv.gz
Observed at (about 17 hours ago)
Identifier HELX
HELX 011200Z 35006KT CAVOK 42/10 Q1010 NOSIG
From batch tds/metars/production/2022/10/1/h12_m54_metars.cache.csv.gz
Observed at (about 18 hours ago)
Identifier HELX
HELX 011100Z 35007KT 8000 NSC 41/13 Q1010 NOSIG
From batch tds/metars/production/2022/10/1/h11_m59_metars.cache.csv.gz
Observed at (about 19 hours ago)
Identifier HELX
HELX 011000Z 36006KT 6000 NSC 39/14 Q1011 NOSIG
From batch tds/metars/production/2022/10/1/h10_m25_metars.cache.csv.gz
Observed at (about 20 hours ago)
Identifier HELX
HELX 010800Z 36005KT 8000 NSC 36/15 Q1013 NOSIG
From batch tds/metars/production/2022/10/1/h08_m29_metars.cache.csv.gz
Observed at (about 22 hours ago)
Identifier HELX
HELX 010700Z 03004KT 6000 NSC 34/14 Q1013 NOSIG
From batch tds/metars/production/2022/10/1/h07_m29_metars.cache.csv.gz
Observed at (about 23 hours ago)
Identifier HELX
HELX 010600Z 05004KT CAVOK 32/11 Q1013 NOSIG
From batch tds/metars/production/2022/10/1/h06_m55_metars.cache.csv.gz
Observed at (about 24 hours ago)
Identifier HELX
HELX 010400Z 06003KT CAVOK 28/10 Q1012 NOSIG
From batch tds/metars/production/2022/10/1/h04_m47_metars.cache.csv.gz
Observed at (1 day ago)
Identifier HELX
HELX 010300Z 00000KT CAVOK 26/09 Q1012 NOSIG
From batch tds/metars/production/2022/10/1/h03_m52_metars.cache.csv.gz
Observed at (1 day ago)
Identifier HELX
HELX 010200Z 00000KT CAVOK 26/10 Q1011 NOSIG
From batch tds/metars/production/2022/10/1/h02_m24_metars.cache.csv.gz
Observed at (1 day ago)
Identifier HELX
HELX 010100Z 05003KT CAVOK 26/09 Q1011 NOSIG
From batch tds/metars/production/2022/10/1/h01_m54_metars.cache.csv.gz
Observed at (1 day ago)
Identifier HELX
HELX 010000Z 00000KT CAVOK 26/07 Q1010 NOSIG
From batch tds/metars/production/2022/10/1/h00_m51_metars.cache.csv.gz
Observed at (1 day ago)
Identifier HELX
HELX 302200Z 04003KT CAVOK 29/08 Q1009 NOSIG
From batch tds/metars/production/2022/9/30/h22_m28_metars.cache.csv.gz
Observed at (1 day ago)
Identifier HELX
HELX 302100Z 05003KT CAVOK 30/08 Q1010 NOSIG
From batch tds/metars/production/2022/9/30/h21_m59_metars.cache.csv.gz
Observed at (1 day ago)
Identifier HELX
HELX 302000Z 07002KT CAVOK 31/08 Q1010 NOSIG
From batch tds/metars/production/2022/9/30/h20_m24_metars.cache.csv.gz
Observed at (1 day ago)
Identifier HELX
HELX 301900Z 03002KT CAVOK 32/08 Q1009 NOSIG
From batch tds/metars/production/2022/9/30/h19_m27_metars.cache.csv.gz
Observed at (1 day ago)
Identifier HELX
HELX 301800Z 05004KT CAVOK 35/06 Q1009 NOSIG
From batch tds/metars/production/2022/9/30/h18_m54_metars.cache.csv.gz
Observed at (1 day ago)
Identifier HELX
HELX 301700Z 07008KT CAVOK 38/04 Q1008 NOSIG
From batch tds/metars/production/2022/9/30/h17_m49_metars.cache.csv.gz
Observed at (1 day ago)
Identifier HELX
HELX 301600Z 06011KT CAVOK 40/06 Q1008 NOSIG
From batch tds/metars/production/2022/9/30/h16_m52_metars.cache.csv.gz
Observed at (1 day ago)
Identifier HELX
HELX 301500Z 35004KT CAVOK 40/09 Q1007 NOSIG
From batch tds/metars/production/2022/9/30/h15_m24_metars.cache.csv.gz
Observed at (1 day ago)
Identifier HELX
HELX 301400Z 35004KT CAVOK 41/10 Q1007 NOSIG
From batch tds/metars/production/2022/9/30/h14_m27_metars.cache.csv.gz
Observed at (1 day ago)
Identifier HELX
HELX 301300Z 33006KT CAVOK 41/11 Q1007 NOSIG
From batch tds/metars/production/2022/9/30/h13_m59_metars.cache.csv.gz
Observed at (1 day ago)
Identifier HELX
HELX 301200Z 02004KT CAVOK 40/10 Q1008 NOSIG
From batch tds/metars/production/2022/9/30/h12_m59_metars.cache.csv.gz
Observed at (1 day ago)
Identifier HELX
HELX 301100Z 34006KT CAVOK 39/13 Q1008 NOSIG
From batch tds/metars/production/2022/9/30/h11_m59_metars.cache.csv.gz
Observed at (2 days ago)
Identifier HELX
HELX 301000Z 34007KT CAVOK 38/14 Q1009 NOSIG
From batch tds/metars/production/2022/9/30/h10_m20_metars.cache.csv.gz
Observed at (2 days ago)
Identifier HELX
HELX 300900Z 03004KT CAVOK 37/12 Q1010 NOSIG
From batch tds/metars/production/2022/9/30/h09_m55_metars.cache.csv.gz
Observed at (2 days ago)
Identifier HELX
HELX 300800Z 02005KT CAVOK 36/14 Q1010 NOSIG
From batch tds/metars/production/2022/9/30/h08_m21_metars.cache.csv.gz
Observed at (2 days ago)
Identifier HELX
HELX 300700Z 05005KT CAVOK 33/13 Q1010 NOSIG
From batch tds/metars/production/2022/9/30/h07_m29_metars.cache.csv.gz
Observed at (2 days ago)
Identifier HELX
HELX 300600Z 15002KT CAVOK 31/13 Q1010 NOSIG
From batch tds/metars/production/2022/9/30/h06_m59_metars.cache.csv.gz
Observed at (2 days ago)
Identifier HELX
HELX 300500Z 17002KT CAVOK 27/09 Q1010 NOSIG
From batch tds/metars/production/2022/9/30/h05_m23_metars.cache.csv.gz
Observed at (2 days ago)
Identifier HELX
HELX 300400Z 33003KT CAVOK 24/10 Q1009 NOSIG
From batch tds/metars/production/2022/9/30/h04_m50_metars.cache.csv.gz
Observed at (2 days ago)
Identifier HELX
HELX 300300Z 01004KT CAVOK 26/03 Q1007 NOSIG
From batch tds/metars/production/2022/9/30/h03_m59_metars.cache.csv.gz
Observed at (2 days ago)
Identifier HELX
HELX 300200Z 00000KT CAVOK 26/06 Q1008 NOSIG
From batch tds/metars/production/2022/9/30/h02_m29_metars.cache.csv.gz
Observed at (2 days ago)
Identifier HELX
HELX 300100Z 00000KT CAVOK 27/07 Q1008 NOSIG
From batch tds/metars/production/2022/9/30/h01_m27_metars.cache.csv.gz
Observed at (2 days ago)
Identifier HELX
talk